sensor_id;sensor_type;location;lat;lon;timestamp;temperature;humidity
25046;DHT22;13044;49.304;12.840;2024-03-08T00:02:24;4.40;99.90
25046;DHT22;13044;49.304;12.840;2024-03-08T00:04:51;4.40;99.90
25046;DHT22;13044;49.304;12.840;2024-03-08T00:07:18;4.50;99.90
25046;DHT22;13044;49.304;12.840;2024-03-08T00:09:45;4.50;99.90
25046;DHT22;13044;49.304;12.840;2024-03-08T00:12:12;4.50;99.90
25046;DHT22;13044;49.304;12.840;2024-03-08T00:14:39;4.40;99.90
25046;DHT22;13044;49.304;12.840;2024-03-08T00:17:06;4.40;99.90
25046;DHT22;13044;49.304;12.840;2024-03-08T00:19:33;4.40;99.90
25046;DHT22;13044;49.304;12.840;2024-03-08T00:22:00;4.50;99.90
25046;DHT22;13044;49.304;12.840;2024-03-08T00:24:27;4.50;99.90
25046;DHT22;13044;49.304;12.840;2024-03-08T00:26:55;4.50;99.90
25046;DHT22;13044;49.304;12.840;2024-03-08T00:29:22;4.50;99.90
25046;DHT22;13044;49.304;12.840;2024-03-08T00:31:49;4.50;99.90
25046;DHT22;13044;49.304;12.840;2024-03-08T00:34:16;4.50;99.90
25046;DHT22;13044;49.304;12.840;2024-03-08T00:36:43;4.50;99.90
25046;DHT22;13044;49.304;12.840;2024-03-08T00:39:10;4.50;99.90
25046;DHT22;13044;49.304;12.840;2024-03-08T00:41:38;4.50;99.90
25046;DHT22;13044;49.304;12.840;2024-03-08T00:44:05;4.50;99.90
25046;DHT22;13044;49.304;12.840;2024-03-08T00:46:32;4.50;99.90
25046;DHT22;13044;49.304;12.840;2024-03-08T00:49:00;4.50;99.90
25046;DHT22;13044;49.304;12.840;2024-03-08T00:51:27;4.50;99.90
25046;DHT22;13044;49.304;12.840;2024-03-08T00:53:54;4.50;99.90
25046;DHT22;13044;49.304;12.840;2024-03-08T00:56:21;4.50;99.90
25046;DHT22;13044;49.304;12.840;2024-03-08T00:58:48;4.50;99.90
25046;DHT22;13044;49.304;12.840;2024-03-08T01:01:15;4.50;99.90
25046;DHT22;13044;49.304;12.840;2024-03-08T01:03:43;4.50;99.90
25046;DHT22;13044;49.304;12.840;2024-03-08T01:06:10;4.50;99.90
25046;DHT22;13044;49.304;12.840;2024-03-08T01:08:38;4.50;99.90
25046;DHT22;13044;49.304;12.840;2024-03-08T01:11:08;4.50;99.90
25046;DHT22;13044;49.304;12.840;2024-03-08T01:13:35;4.50;99.90
25046;DHT22;13044;49.304;12.840;2024-03-08T01:16:03;4.50;99.90
25046;DHT22;13044;49.304;12.840;2024-03-08T01:18:30;4.50;99.90
25046;DHT22;13044;49.304;12.840;2024-03-08T01:20:57;4.50;99.90
25046;DHT22;13044;49.304;12.840;2024-03-08T01:23:24;4.50;99.90
25046;DHT22;13044;49.304;12.840;2024-03-08T01:25:51;4.50;99.90
25046;DHT22;13044;49.304;12.840;2024-03-08T01:28:24;4.50;99.90
25046;DHT22;13044;49.304;12.840;2024-03-08T01:30:52;4.50;99.90
25046;DHT22;13044;49.304;12.840;2024-03-08T01:33:26;4.40;99.90
25046;DHT22;13044;49.304;12.840;2024-03-08T01:35:53;4.40;99.90
25046;DHT22;13044;49.304;12.840;2024-03-08T01:38:20;4.40;99.90
25046;DHT22;13044;49.304;12.840;2024-03-08T01:40:48;4.40;99.90
25046;DHT22;13044;49.304;12.840;2024-03-08T01:43:28;4.30;99.90
25046;DHT22;13044;49.304;12.840;2024-03-08T01:45:58;4.30;99.90
25046;DHT22;13044;49.304;12.840;2024-03-08T01:48:27;4.30;99.90
25046;DHT22;13044;49.304;12.840;2024-03-08T01:50:58;4.20;99.90
25046;DHT22;13044;49.304;12.840;2024-03-08T01:53:27;4.30;99.90
25046;DHT22;13044;49.304;12.840;2024-03-08T01:55:57;4.30;99.90
25046;DHT22;13044;49.304;12.840;2024-03-08T01:58:27;4.30;99.90
25046;DHT22;13044;49.304;12.840;2024-03-08T02:00:59;4.30;99.90
25046;DHT22;13044;49.304;12.840;2024-03-08T02:03:26;4.30;99.90
25046;DHT22;13044;49.304;12.840;2024-03-08T02:05:54;4.30;99.90
25046;DHT22;13044;49.304;12.840;2024-03-08T02:08:21;4.30;99.90
25046;DHT22;13044;49.304;12.840;2024-03-08T02:10:49;4.20;99.90
25046;DHT22;13044;49.304;12.840;2024-03-08T02:13:17;4.30;99.90
25046;DHT22;13044;49.304;12.840;2024-03-08T02:18:21;4.30;99.90
25046;DHT22;13044;49.304;12.840;2024-03-08T02:20:54;4.20;99.90
25046;DHT22;13044;49.304;12.840;2024-03-08T02:23:25;4.20;99.90
25046;DHT22;13044;49.304;12.840;2024-03-08T02:25:53;4.20;99.90
25046;DHT22;13044;49.304;12.840;2024-03-08T02:28:22;4.30;99.90
25046;DHT22;13044;49.304;12.840;2024-03-08T02:30:52;4.30;99.90
25046;DHT22;13044;49.304;12.840;2024-03-08T02:33:26;4.30;99.90
25046;DHT22;13044;49.304;12.840;2024-03-08T02:35:54;4.20;99.90
25046;DHT22;13044;49.304;12.840;2024-03-08T02:38:23;4.20;99.90
25046;DHT22;13044;49.304;12.840;2024-03-08T02:40:52;4.20;99.90
25046;DHT22;13044;49.304;12.840;2024-03-08T02:43:21;4.20;99.90
25046;DHT22;13044;49.304;12.840;2024-03-08T02:45:52;4.30;99.90
25046;DHT22;13044;49.304;12.840;2024-03-08T02:48:21;4.20;99.90
25046;DHT22;13044;49.304;12.840;2024-03-08T02:50:49;4.20;99.90
25046;DHT22;13044;49.304;12.840;2024-03-08T02:53:18;4.30;99.90
25046;DHT22;13044;49.304;12.840;2024-03-08T02:55:48;4.30;99.90
25046;DHT22;13044;49.304;12.840;2024-03-08T02:58:16;4.20;99.90
25046;DHT22;13044;49.304;12.840;2024-03-08T03:00:42;4.20;99.90
25046;DHT22;13044;49.304;12.840;2024-03-08T03:03:10;4.20;99.90
25046;DHT22;13044;49.304;12.840;2024-03-08T03:05:37;4.20;99.90
25046;DHT22;13044;49.304;12.840;2024-03-08T03:08:05;4.20;99.90
25046;DHT22;13044;49.304;12.840;2024-03-08T03:10:36;4.20;99.90
25046;DHT22;13044;49.304;12.840;2024-03-08T03:13:03;4.20;99.90
25046;DHT22;13044;49.304;12.840;2024-03-08T03:15:35;4.20;99.90
25046;DHT22;13044;49.304;12.840;2024-03-08T03:18:03;4.20;99.90
25046;DHT22;13044;49.304;12.840;2024-03-08T03:20:30;4.20;99.90
25046;DHT22;13044;49.304;12.840;2024-03-08T03:23:03;4.20;99.90
25046;DHT22;13044;49.304;12.840;2024-03-08T03:25:30;4.20;99.90
25046;DHT22;13044;49.304;12.840;2024-03-08T03:28:02;4.20;99.90
25046;DHT22;13044;49.304;12.840;2024-03-08T03:30:31;4.20;99.90
25046;DHT22;13044;49.304;12.840;2024-03-08T03:33:00;4.20;99.90
25046;DHT22;13044;49.304;12.840;2024-03-08T03:35:28;4.20;99.90
25046;DHT22;13044;49.304;12.840;2024-03-08T03:37:56;4.20;99.90
25046;DHT22;13044;49.304;12.840;2024-03-08T03:40:33;4.20;99.90
25046;DHT22;13044;49.304;12.840;2024-03-08T03:43:01;4.20;99.90
25046;DHT22;13044;49.304;12.840;2024-03-08T03:45:29;4.20;99.90
25046;DHT22;13044;49.304;12.840;2024-03-08T03:48:04;4.20;99.90
25046;DHT22;13044;49.304;12.840;2024-03-08T03:50:34;4.20;99.90
25046;DHT22;13044;49.304;12.840;2024-03-08T03:53:03;4.20;99.90
25046;DHT22;13044;49.304;12.840;2024-03-08T03:55:30;4.20;99.90
25046;DHT22;13044;49.304;12.840;2024-03-08T03:57:57;4.20;99.90
25046;DHT22;13044;49.304;12.840;2024-03-08T04:00:26;4.20;99.90
25046;DHT22;13044;49.304;12.840;2024-03-08T04:02:54;4.20;99.90
25046;DHT22;13044;49.304;12.840;2024-03-08T04:05:21;4.20;99.90
25046;DHT22;13044;49.304;12.840;2024-03-08T04:07:48;4.20;99.90
25046;DHT22;13044;49.304;12.840;2024-03-08T04:10:15;4.20;99.90
25046;DHT22;13044;49.304;12.840;2024-03-08T04:12:42;4.20;99.90
25046;DHT22;13044;49.304;12.840;2024-03-08T04:15:09;4.20;99.90
25046;DHT22;13044;49.304;12.840;2024-03-08T04:17:37;4.20;99.90
25046;DHT22;13044;49.304;12.840;2024-03-08T04:20:05;4.20;99.90
25046;DHT22;13044;49.304;12.840;2024-03-08T04:22:37;4.10;99.90
25046;DHT22;13044;49.304;12.840;2024-03-08T04:25:05;4.10;99.90
25046;DHT22;13044;49.304;12.840;2024-03-08T04:27:33;4.10;99.90
25046;DHT22;13044;49.304;12.840;2024-03-08T04:30:04;4.10;99.90
25046;DHT22;13044;49.304;12.840;2024-03-08T04:32:34;4.00;99.90
25046;DHT22;13044;49.304;12.840;2024-03-08T04:35:02;4.00;99.90
25046;DHT22;13044;49.304;12.840;2024-03-08T04:37:30;4.00;99.90
25046;DHT22;13044;49.304;12.840;2024-03-08T04:39:57;4.00;99.90
25046;DHT22;13044;49.304;12.840;2024-03-08T04:42:25;4.00;99.90
25046;DHT22;13044;49.304;12.840;2024-03-08T04:44:53;4.00;99.90
25046;DHT22;13044;49.304;12.840;2024-03-08T04:47:20;3.90;99.90
25046;DHT22;13044;49.304;12.840;2024-03-08T04:49:48;3.90;99.90
25046;DHT22;13044;49.304;12.840;2024-03-08T04:52:15;3.90;99.90
25046;DHT22;13044;49.304;12.840;2024-03-08T04:54:42;3.90;99.90
25046;DHT22;13044;49.304;12.840;2024-03-08T04:57:09;3.90;99.90
25046;DHT22;13044;49.304;12.840;2024-03-08T04:59:37;3.80;99.90
25046;DHT22;13044;49.304;12.840;2024-03-08T05:02:04;3.80;99.90
25046;DHT22;13044;49.304;12.840;2024-03-08T05:04:31;3.80;99.90
25046;DHT22;13044;49.304;12.840;2024-03-08T05:06:58;3.80;99.90
25046;DHT22;13044;49.304;12.840;2024-03-08T05:09:27;3.80;99.90
25046;DHT22;13044;49.304;12.840;2024-03-08T05:11:55;3.80;99.90
25046;DHT22;13044;49.304;12.840;2024-03-08T05:14:25;3.70;99.90
25046;DHT22;13044;49.304;12.840;2024-03-08T05:16:52;3.70;99.90
25046;DHT22;13044;49.304;12.840;2024-03-08T05:19:20;3.70;99.90
25046;DHT22;13044;49.304;12.840;2024-03-08T05:21:48;3.70;99.90
25046;DHT22;13044;49.304;12.840;2024-03-08T05:24:17;3.70;99.90
25046;DHT22;13044;49.304;12.840;2024-03-08T05:26:45;3.70;99.90
25046;DHT22;13044;49.304;12.840;2024-03-08T05:29:13;3.70;99.90
25046;DHT22;13044;49.304;12.840;2024-03-08T05:31:49;3.70;99.90
25046;DHT22;13044;49.304;12.840;2024-03-08T05:34:17;3.70;99.90
25046;DHT22;13044;49.304;12.840;2024-03-08T05:36:44;3.70;99.90
25046;DHT22;13044;49.304;12.840;2024-03-08T05:39:12;3.70;99.90
25046;DHT22;13044;49.304;12.840;2024-03-08T05:41:40;3.70;99.90
25046;DHT22;13044;49.304;12.840;2024-03-08T05:44:07;3.70;99.90
25046;DHT22;13044;49.304;12.840;2024-03-08T05:46:35;3.70;99.90
25046;DHT22;13044;49.304;12.840;2024-03-08T05:49:06;3.70;99.90
25046;DHT22;13044;49.304;12.840;2024-03-08T05:51:34;3.60;99.90
25046;DHT22;13044;49.304;12.840;2024-03-08T05:54:07;3.60;99.90
25046;DHT22;13044;49.304;12.840;2024-03-08T05:56:40;3.60;99.90
25046;DHT22;13044;49.304;12.840;2024-03-08T05:59:09;3.70;99.90
25046;DHT22;13044;49.304;12.840;2024-03-08T06:01:36;3.60;99.90
25046;DHT22;13044;49.304;12.840;2024-03-08T06:04:04;3.70;99.90
25046;DHT22;13044;49.304;12.840;2024-03-08T06:06:31;3.60;99.90
25046;DHT22;13044;49.304;12.840;2024-03-08T06:08:58;3.60;99.90
25046;DHT22;13044;49.304;12.840;2024-03-08T06:11:26;3.60;99.90
25046;DHT22;13044;49.304;12.840;2024-03-08T06:13:58;3.60;99.90
25046;DHT22;13044;49.304;12.840;2024-03-08T06:16:27;3.60;99.90
25046;DHT22;13044;49.304;12.840;2024-03-08T06:18:57;3.60;99.90
25046;DHT22;13044;49.304;12.840;2024-03-08T06:21:27;3.60;99.90
25046;DHT22;13044;49.304;12.840;2024-03-08T06:23:54;3.60;99.90
25046;DHT22;13044;49.304;12.840;2024-03-08T06:26:21;3.60;99.90
25046;DHT22;13044;49.304;12.840;2024-03-08T06:28:48;3.60;99.90
25046;DHT22;13044;49.304;12.840;2024-03-08T06:31:16;3.70;99.90
25046;DHT22;13044;49.304;12.840;2024-03-08T06:33:43;3.70;99.90
25046;DHT22;13044;49.304;12.840;2024-03-08T06:36:10;3.70;99.90
25046;DHT22;13044;49.304;12.840;2024-03-08T06:38:39;3.70;99.90
25046;DHT22;13044;49.304;12.840;2024-03-08T06:41:09;3.70;99.90
25046;DHT22;13044;49.304;12.840;2024-03-08T06:43:46;3.80;99.90
25046;DHT22;13044;49.304;12.840;2024-03-08T06:46:18;3.70;99.90
25046;DHT22;13044;49.304;12.840;2024-03-08T06:48:47;3.80;99.90
25046;DHT22;13044;49.304;12.840;2024-03-08T06:51:14;3.80;99.90
25046;DHT22;13044;49.304;12.840;2024-03-08T06:53:41;3.90;99.90
25046;DHT22;13044;49.304;12.840;2024-03-08T06:56:09;4.00;99.90
25046;DHT22;13044;49.304;12.840;2024-03-08T06:58:36;4.10;99.90
25046;DHT22;13044;49.304;12.840;2024-03-08T07:01:04;4.20;99.90
25046;DHT22;13044;49.304;12.840;2024-03-08T07:03:34;4.20;99.90
25046;DHT22;13044;49.304;12.840;2024-03-08T07:06:01;4.40;99.90
25046;DHT22;13044;49.304;12.840;2024-03-08T07:08:34;4.40;99.90
25046;DHT22;13044;49.304;12.840;2024-03-08T07:11:01;4.50;99.90
25046;DHT22;13044;49.304;12.840;2024-03-08T07:13:28;4.50;99.90
25046;DHT22;13044;49.304;12.840;2024-03-08T07:15:56;4.60;99.90
25046;DHT22;13044;49.304;12.840;2024-03-08T07:18:23;4.70;99.90
25046;DHT22;13044;49.304;12.840;2024-03-08T07:20:50;4.80;99.90
25046;DHT22;13044;49.304;12.840;2024-03-08T07:23:17;4.90;99.90
25046;DHT22;13044;49.304;12.840;2024-03-08T07:26:03;5.00;99.90
25046;DHT22;13044;49.304;12.840;2024-03-08T07:28:30;5.10;99.90
25046;DHT22;13044;49.304;12.840;2024-03-08T07:30:58;5.10;99.90
25046;DHT22;13044;49.304;12.840;2024-03-08T07:33:50;5.20;99.90
25046;DHT22;13044;49.304;12.840;2024-03-08T07:36:17;5.30;99.90
25046;DHT22;13044;49.304;12.840;2024-03-08T07:38:44;5.40;99.90
25046;DHT22;13044;49.304;12.840;2024-03-08T07:41:15;5.50;99.90
25046;DHT22;13044;49.304;12.840;2024-03-08T07:43:43;5.70;99.90
25046;DHT22;13044;49.304;12.840;2024-03-08T07:46:10;5.80;99.90
25046;DHT22;13044;49.304;12.840;2024-03-08T07:48:36;5.80;99.90
25046;DHT22;13044;49.304;12.840;2024-03-08T07:51:04;5.90;99.90
25046;DHT22;13044;49.304;12.840;2024-03-08T07:53:32;5.90;99.90
25046;DHT22;13044;49.304;12.840;2024-03-08T07:55:58;6.00;99.90
25046;DHT22;13044;49.304;12.840;2024-03-08T07:58:26;6.10;99.90
25046;DHT22;13044;49.304;12.840;2024-03-08T08:00:53;6.30;99.90
25046;DHT22;13044;49.304;12.840;2024-03-08T08:03:21;6.50;99.90
25046;DHT22;13044;49.304;12.840;2024-03-08T08:05:48;6.60;99.90
25046;DHT22;13044;49.304;12.840;2024-03-08T08:08:15;6.60;99.90
25046;DHT22;13044;49.304;12.840;2024-03-08T08:10:42;6.70;99.90
25046;DHT22;13044;49.304;12.840;2024-03-08T08:13:09;6.80;99.90
25046;DHT22;13044;49.304;12.840;2024-03-08T08:15:36;7.00;99.90
25046;DHT22;13044;49.304;12.840;2024-03-08T08:18:03;7.10;99.90
25046;DHT22;13044;49.304;12.840;2024-03-08T08:20:32;7.20;99.90
25046;DHT22;13044;49.304;12.840;2024-03-08T08:22:59;7.30;99.90
25046;DHT22;13044;49.304;12.840;2024-03-08T08:25:25;7.40;99.90
25046;DHT22;13044;49.304;12.840;2024-03-08T08:27:52;7.50;99.90
25046;DHT22;13044;49.304;12.840;2024-03-08T08:30:20;7.60;99.90
25046;DHT22;13044;49.304;12.840;2024-03-08T08:32:47;7.70;99.90
25046;DHT22;13044;49.304;12.840;2024-03-08T08:35:15;7.70;99.90
25046;DHT22;13044;49.304;12.840;2024-03-08T08:37:42;7.80;99.90
25046;DHT22;13044;49.304;12.840;2024-03-08T08:40:11;7.90;99.90
25046;DHT22;13044;49.304;12.840;2024-03-08T08:42:42;8.00;99.90
25046;DHT22;13044;49.304;12.840;2024-03-08T08:45:09;8.10;99.90
25046;DHT22;13044;49.304;12.840;2024-03-08T08:47:46;8.10;99.90
25046;DHT22;13044;49.304;12.840;2024-03-08T08:50:13;8.20;99.90
25046;DHT22;13044;49.304;12.840;2024-03-08T08:52:40;8.30;99.90
25046;DHT22;13044;49.304;12.840;2024-03-08T08:55:10;8.40;99.90
25046;DHT22;13044;49.304;12.840;2024-03-08T08:57:41;8.50;99.90
25046;DHT22;13044;49.304;12.840;2024-03-08T09:00:09;8.60;99.90
25046;DHT22;13044;49.304;12.840;2024-03-08T09:02:41;8.70;99.90
25046;DHT22;13044;49.304;12.840;2024-03-08T09:05:09;8.80;99.90
25046;DHT22;13044;49.304;12.840;2024-03-08T09:07:36;8.90;99.90
25046;DHT22;13044;49.304;12.840;2024-03-08T09:10:04;9.10;99.90
25046;DHT22;13044;49.304;12.840;2024-03-08T09:12:34;9.10;99.90
25046;DHT22;13044;49.304;12.840;2024-03-08T09:15:01;9.20;99.90
25046;DHT22;13044;49.304;12.840;2024-03-08T09:17:28;9.20;99.90
25046;DHT22;13044;49.304;12.840;2024-03-08T09:19:55;9.30;99.90
25046;DHT22;13044;49.304;12.840;2024-03-08T09:22:24;9.40;99.90
25046;DHT22;13044;49.304;12.840;2024-03-08T09:24:51;9.60;99.90
25046;DHT22;13044;49.304;12.840;2024-03-08T09:27:18;9.70;99.90
25046;DHT22;13044;49.304;12.840;2024-03-08T09:29:46;9.80;99.90
25046;DHT22;13044;49.304;12.840;2024-03-08T09:32:13;9.80;99.90
25046;DHT22;13044;49.304;12.840;2024-03-08T09:34:40;9.90;99.90
25046;DHT22;13044;49.304;12.840;2024-03-08T09:37:07;10.00;99.90
25046;DHT22;13044;49.304;12.840;2024-03-08T09:39:35;10.20;99.90
25046;DHT22;13044;49.304;12.840;2024-03-08T09:42:02;10.30;99.90
25046;DHT22;13044;49.304;12.840;2024-03-08T09:44:30;10.40;99.90
25046;DHT22;13044;49.304;12.840;2024-03-08T09:46:58;10.40;99.90
25046;DHT22;13044;49.304;12.840;2024-03-08T09:49:26;10.40;99.90
25046;DHT22;13044;49.304;12.840;2024-03-08T09:51:53;10.40;99.90
25046;DHT22;13044;49.304;12.840;2024-03-08T09:54:20;10.50;99.90
25046;DHT22;13044;49.304;12.840;2024-03-08T09:56:52;10.60;99.90
25046;DHT22;13044;49.304;12.840;2024-03-08T09:59:19;10.60;99.90
25046;DHT22;13044;49.304;12.840;2024-03-08T10:02:12;10.80;99.90
25046;DHT22;13044;49.304;12.840;2024-03-08T10:04:42;10.90;99.90
25046;DHT22;13044;49.304;12.840;2024-03-08T10:07:10;11.00;99.80
25046;DHT22;13044;49.304;12.840;2024-03-08T10:09:38;11.00;99.10
25046;DHT22;13044;49.304;12.840;2024-03-08T10:12:05;11.10;99.20
25046;DHT22;13044;49.304;12.840;2024-03-08T10:14:32;11.10;98.40
25046;DHT22;13044;49.304;12.840;2024-03-08T10:16:59;11.00;99.00
25046;DHT22;13044;49.304;12.840;2024-03-08T10:19:27;11.20;98.40
25046;DHT22;13044;49.304;12.840;2024-03-08T10:24:31;11.30;98.40
25046;DHT22;13044;49.304;12.840;2024-03-08T10:27:02;11.40;98.00
25046;DHT22;13044;49.304;12.840;2024-03-08T10:29:32;11.40;97.40
25046;DHT22;13044;49.304;12.840;2024-03-08T10:31:59;11.30;97.40
25046;DHT22;13044;49.304;12.840;2024-03-08T10:34:26;11.20;97.20
25046;DHT22;13044;49.304;12.840;2024-03-08T10:37:00;11.20;97.80
25046;DHT22;13044;49.304;12.840;2024-03-08T10:39:35;11.30;97.60
25046;DHT22;13044;49.304;12.840;2024-03-08T10:42:04;11.30;97.40
25046;DHT22;13044;49.304;12.840;2024-03-08T10:44:55;11.40;96.90
25046;DHT22;13044;49.304;12.840;2024-03-08T10:47:30;11.50;97.00
25046;DHT22;13044;49.304;12.840;2024-03-08T10:49:59;11.60;97.00
25046;DHT22;13044;49.304;12.840;2024-03-08T10:52:40;11.70;96.30
25046;DHT22;13044;49.304;12.840;2024-03-08T10:55:09;11.80;96.40
25046;DHT22;13044;49.304;12.840;2024-03-08T10:57:39;11.80;95.70
25046;DHT22;13044;49.304;12.840;2024-03-08T11:00:08;11.90;95.70
25046;DHT22;13044;49.304;12.840;2024-03-08T11:02:38;12.10;95.80
25046;DHT22;13044;49.304;12.840;2024-03-08T11:05:04;12.20;95.40
25046;DHT22;13044;49.304;12.840;2024-03-08T11:07:42;12.20;95.20
25046;DHT22;13044;49.304;12.840;2024-03-08T11:10:19;12.30;95.40
25046;DHT22;13044;49.304;12.840;2024-03-08T11:12:47;12.30;94.90
25046;DHT22;13044;49.304;12.840;2024-03-08T11:15:15;12.30;94.20
25046;DHT22;13044;49.304;12.840;2024-03-08T11:17:49;12.30;93.90
25046;DHT22;13044;49.304;12.840;2024-03-08T11:20:18;12.30;94.10
25046;DHT22;13044;49.304;12.840;2024-03-08T11:25:36;12.50;93.70
25046;DHT22;13044;49.304;12.840;2024-03-08T11:28:22;12.50;93.90
25046;DHT22;13044;49.304;12.840;2024-03-08T11:33:31;12.60;93.80
25046;DHT22;13044;49.304;12.840;2024-03-08T11:38:44;12.70;92.70
25046;DHT22;13044;49.304;12.840;2024-03-08T11:41:11;12.70;92.50
25046;DHT22;13044;49.304;12.840;2024-03-08T11:43:45;12.70;92.70
25046;DHT22;13044;49.304;12.840;2024-03-08T11:46:17;13.00;92.80
25046;DHT22;13044;49.304;12.840;2024-03-08T11:48:47;13.10;92.60
25046;DHT22;13044;49.304;12.840;2024-03-08T11:51:15;13.20;91.80
25046;DHT22;13044;49.304;12.840;2024-03-08T11:53:45;13.20;91.50
25046;DHT22;13044;49.304;12.840;2024-03-08T11:56:14;13.10;91.20
25046;DHT22;13044;49.304;12.840;2024-03-08T11:58:53;13.20;90.90
25046;DHT22;13044;49.304;12.840;2024-03-08T12:01:24;13.20;91.30
25046;DHT22;13044;49.304;12.840;2024-03-08T12:03:56;13.40;91.60
25046;DHT22;13044;49.304;12.840;2024-03-08T12:06:36;13.50;91.00
25046;DHT22;13044;49.304;12.840;2024-03-08T12:09:13;13.70;90.00
25046;DHT22;13044;49.304;12.840;2024-03-08T12:11:41;13.80;90.00
25046;DHT22;13044;49.304;12.840;2024-03-08T12:14:09;13.70;89.30
25046;DHT22;13044;49.304;12.840;2024-03-08T12:16:37;13.70;89.30
25046;DHT22;13044;49.304;12.840;2024-03-08T12:19:04;13.80;89.00
25046;DHT22;13044;49.304;12.840;2024-03-08T12:21:32;13.80;87.20
25046;DHT22;13044;49.304;12.840;2024-03-08T12:24:07;13.80;88.00
25046;DHT22;13044;49.304;12.840;2024-03-08T12:26:36;13.90;87.50
25046;DHT22;13044;49.304;12.840;2024-03-08T12:29:25;14.00;86.40
25046;DHT22;13044;49.304;12.840;2024-03-08T12:31:55;14.10;86.20
25046;DHT22;13044;49.304;12.840;2024-03-08T12:34:26;14.10;84.30
25046;DHT22;13044;49.304;12.840;2024-03-08T12:36:55;14.20;85.00
25046;DHT22;13044;49.304;12.840;2024-03-08T12:39:23;14.20;84.30
25046;DHT22;13044;49.304;12.840;2024-03-08T12:41:56;14.50;84.40
25046;DHT22;13044;49.304;12.840;2024-03-08T12:44:24;14.60;84.20
25046;DHT22;13044;49.304;12.840;2024-03-08T12:46:52;14.70;84.00
25046;DHT22;13044;49.304;12.840;2024-03-08T12:49:20;14.80;83.70
25046;DHT22;13044;49.304;12.840;2024-03-08T12:51:51;14.80;82.80
25046;DHT22;13044;49.304;12.840;2024-03-08T12:54:19;14.80;82.30
25046;DHT22;13044;49.304;12.840;2024-03-08T12:56:52;15.00;82.70
25046;DHT22;13044;49.304;12.840;2024-03-08T12:59:22;15.10;81.30
25046;DHT22;13044;49.304;12.840;2024-03-08T13:01:51;15.10;80.20
25046;DHT22;13044;49.304;12.840;2024-03-08T13:04:19;15.10;80.10
25046;DHT22;13044;49.304;12.840;2024-03-08T13:06:48;15.10;79.00
25046;DHT22;13044;49.304;12.840;2024-03-08T13:09:20;15.10;79.60
25046;DHT22;13044;49.304;12.840;2024-03-08T13:11:48;15.20;79.70
25046;DHT22;13044;49.304;12.840;2024-03-08T13:14:15;15.20;79.10
25046;DHT22;13044;49.304;12.840;2024-03-08T13:16:43;15.30;78.70
25046;DHT22;13044;49.304;12.840;2024-03-08T13:19:14;15.30;77.80
25046;DHT22;13044;49.304;12.840;2024-03-08T13:21:41;15.30;77.70
25046;DHT22;13044;49.304;12.840;2024-03-08T13:24:09;15.30;78.00
25046;DHT22;13044;49.304;12.840;2024-03-08T13:26:36;15.40;77.30
25046;DHT22;13044;49.304;12.840;2024-03-08T13:29:04;15.60;77.90
25046;DHT22;13044;49.304;12.840;2024-03-08T13:31:33;15.70;75.20
25046;DHT22;13044;49.304;12.840;2024-03-08T13:34:00;15.60;75.10
25046;DHT22;13044;49.304;12.840;2024-03-08T13:36:27;15.60;75.60
25046;DHT22;13044;49.304;12.840;2024-03-08T13:39:05;15.40;74.90
25046;DHT22;13044;49.304;12.840;2024-03-08T13:41:42;15.40;75.30
25046;DHT22;13044;49.304;12.840;2024-03-08T13:44:09;15.50;74.30
25046;DHT22;13044;49.304;12.840;2024-03-08T13:46:36;15.40;76.00
25046;DHT22;13044;49.304;12.840;2024-03-08T13:49:05;15.60;74.40
25046;DHT22;13044;49.304;12.840;2024-03-08T13:51:34;15.50;74.10
25046;DHT22;13044;49.304;12.840;2024-03-08T13:54:03;15.50;73.60
25046;DHT22;13044;49.304;12.840;2024-03-08T13:56:33;15.60;74.30
25046;DHT22;13044;49.304;12.840;2024-03-08T13:59:01;15.80;73.80
25046;DHT22;13044;49.304;12.840;2024-03-08T14:01:29;15.90;73.40
25046;DHT22;13044;49.304;12.840;2024-03-08T14:03:56;15.90;73.20
25046;DHT22;13044;49.304;12.840;2024-03-08T14:06:23;16.00;72.40
25046;DHT22;13044;49.304;12.840;2024-03-08T14:08:57;16.10;71.40
25046;DHT22;13044;49.304;12.840;2024-03-08T14:11:24;16.00;71.90
25046;DHT22;13044;49.304;12.840;2024-03-08T14:13:52;16.00;71.90
25046;DHT22;13044;49.304;12.840;2024-03-08T14:16:20;16.00;72.20
25046;DHT22;13044;49.304;12.840;2024-03-08T14:18:47;15.90;72.30
25046;DHT22;13044;49.304;12.840;2024-03-08T14:21:14;15.80;72.10
25046;DHT22;13044;49.304;12.840;2024-03-08T14:23:41;15.70;71.70
25046;DHT22;13044;49.304;12.840;2024-03-08T14:26:09;15.30;70.70
25046;DHT22;13044;49.304;12.840;2024-03-08T14:28:37;15.00;71.30
25046;DHT22;13044;49.304;12.840;2024-03-08T14:31:05;14.80;72.40
25046;DHT22;13044;49.304;12.840;2024-03-08T14:33:37;14.60;72.80
25046;DHT22;13044;49.304;12.840;2024-03-08T14:36:04;14.30;72.50
25046;DHT22;13044;49.304;12.840;2024-03-08T14:38:33;14.20;73.90
25046;DHT22;13044;49.304;12.840;2024-03-08T14:41:01;14.10;74.40
25046;DHT22;13044;49.304;12.840;2024-03-08T14:43:31;14.10;74.50
25046;DHT22;13044;49.304;12.840;2024-03-08T14:45:58;14.00;74.90
25046;DHT22;13044;49.304;12.840;2024-03-08T14:48:25;13.70;74.30
25046;DHT22;13044;49.304;12.840;2024-03-08T14:50:52;13.50;75.20
25046;DHT22;13044;49.304;12.840;2024-03-08T14:53:19;13.40;75.50
25046;DHT22;13044;49.304;12.840;2024-03-08T14:55:46;13.10;76.30
25046;DHT22;13044;49.304;12.840;2024-03-08T14:58:14;13.00;77.30
25046;DHT22;13044;49.304;12.840;2024-03-08T15:00:42;12.80;77.70
25046;DHT22;13044;49.304;12.840;2024-03-08T15:03:10;12.60;77.60
25046;DHT22;13044;49.304;12.840;2024-03-08T15:05:40;12.40;78.80
25046;DHT22;13044;49.304;12.840;2024-03-08T15:08:14;12.40;79.40
25046;DHT22;13044;49.304;12.840;2024-03-08T15:10:47;12.30;79.70
25046;DHT22;13044;49.304;12.840;2024-03-08T15:13:21;12.10;80.00
25046;DHT22;13044;49.304;12.840;2024-03-08T15:15:50;12.00;80.70
25046;DHT22;13044;49.304;12.840;2024-03-08T15:18:25;11.80;81.50
25046;DHT22;13044;49.304;12.840;2024-03-08T15:20:53;11.70;81.90
25046;DHT22;13044;49.304;12.840;2024-03-08T15:23:20;11.50;82.20
25046;DHT22;13044;49.304;12.840;2024-03-08T15:25:48;11.40;82.80
25046;DHT22;13044;49.304;12.840;2024-03-08T15:28:16;11.30;83.30
25046;DHT22;13044;49.304;12.840;2024-03-08T15:30:46;11.10;83.70
25046;DHT22;13044;49.304;12.840;2024-03-08T15:33:18;11.00;84.40
25046;DHT22;13044;49.304;12.840;2024-03-08T15:35:51;11.00;84.80
25046;DHT22;13044;49.304;12.840;2024-03-08T15:38:25;10.80;85.20
25046;DHT22;13044;49.304;12.840;2024-03-08T15:40:54;10.70;85.80
25046;DHT22;13044;49.304;12.840;2024-03-08T15:43:22;10.60;86.20
25046;DHT22;13044;49.304;12.840;2024-03-08T15:45:49;10.50;86.60
25046;DHT22;13044;49.304;12.840;2024-03-08T15:48:16;10.50;86.90
25046;DHT22;13044;49.304;12.840;2024-03-08T15:50:43;10.30;87.20